Laxa Airport


Codes: ESSH/
Name: Laxa Airport
City: Laxa
Country: Sweden
Elevation: 0 ft.

Photos at Laxa Airport


   Photos courtesy of SpottingLog. You can add your own sightings and photos by signing up for a free trial today.



No photos found.

Weather at Laxa Airport


Time (UTC)DescriptionTempratureWindCloud coverageVisibilityPressureHumidity
19-Apr-2024 06:00Overcast Clouds-0°C9 mph, NE90%10000m1010hPa94%
19-Apr-2024 09:00Overcast Clouds1°C9 mph, E94%10000m1009hPa77%
19-Apr-2024 12:00Overcast Clouds4°C7 mph, NE98%10000m1009hPa60%
19-Apr-2024 15:00Overcast Clouds4°C7 mph, NE100%10000m1009hPa55%
19-Apr-2024 18:00Light Snow1°C2 mph, NE99%10000m1010hPa82%
19-Apr-2024 21:00Broken Clouds-2°C4 mph, NE76%10000m1011hPa90%
20-Apr-2024 00:00Broken Clouds-4°C2 mph, NE57%10000m1013hPa92%
20-Apr-2024 03:00Scattered Clouds-4°C2 mph, N50%10000m1014hPa91%
20-Apr-2024 06:00Scattered Clouds-0°C4 mph, N45%10000m1015hPa69%
20-Apr-2024 09:00Overcast Clouds4°C9 mph, N87%10000m1016hPa55%
20-Apr-2024 12:00Overcast Clouds5°C9 mph, N93%10000m1018hPa38%
20-Apr-2024 15:00Overcast Clouds5°C7 mph, N100%10000m1019hPa37%
20-Apr-2024 18:00Overcast Clouds1°C4 mph, N100%10000m1022hPa62%
20-Apr-2024 21:00Overcast Clouds-1°C4 mph, N99%10000m1024hPa69%
21-Apr-2024 00:00Overcast Clouds-2°C2 mph, NE99%10000m1026hPa79%
21-Apr-2024 03:00Overcast Clouds-3°C2 mph, N98%10000m1028hPa78%
21-Apr-2024 06:00Overcast Clouds1°C7 mph, NE99%10000m1029hPa66%
21-Apr-2024 09:00Overcast Clouds4°C9 mph, NE100%10000m1031hPa49%
21-Apr-2024 12:00Overcast Clouds6°C9 mph, NE100%10000m1031hPa39%
21-Apr-2024 15:00Overcast Clouds6°C9 mph, NE100%10000m1031hPa39%
21-Apr-2024 18:00Overcast Clouds1°C7 mph, NE91%10000m1032hPa60%
21-Apr-2024 21:00Clear Sky-2°C7 mph, NE6%10000m1033hPa75%
22-Apr-2024 00:00Clear Sky-4°C4 mph, NE5%10000m1033hPa85%
22-Apr-2024 03:00Clear Sky-5°C4 mph, NE7%10000m1032hPa88%
22-Apr-2024 06:00Scattered Clouds-1°C7 mph, NE31%10000m1031hPa74%
22-Apr-2024 09:00Overcast Clouds3°C7 mph, NE90%10000m1028hPa51%
22-Apr-2024 12:00Broken Clouds7°C4 mph, NE68%10000m1026hPa38%
22-Apr-2024 15:00Overcast Clouds6°C4 mph, NW99%10000m1024hPa41%
22-Apr-2024 18:00Broken Clouds1°C2 mph, W70%10000m1023hPa67%
22-Apr-2024 21:00Broken Clouds-2°C2 mph, E59%10000m1023hPa77%
23-Apr-2024 00:00Scattered Clouds-3°C2 mph, E36%10000m1022hPa81%
23-Apr-2024 03:00Few Clouds-4°C2 mph, SE12%10000m1021hPa82%
23-Apr-2024 06:00Few Clouds1°C2 mph, S12%10000m1019hPa60%
23-Apr-2024 09:00Clear Sky7°C7 mph, W7%10000m1017hPa48%
23-Apr-2024 12:00Clear Sky8°C7 mph, W6%10000m1015hPa36%
23-Apr-2024 15:00Overcast Clouds8°C4 mph, W100%10000m1013hPa42%
23-Apr-2024 18:00Overcast Clouds4°C4 mph, SW100%10000m1011hPa77%
23-Apr-2024 21:00Light Rain3°C7 mph, SE100%755m1011hPa95%
24-Apr-2024 00:00Overcast Clouds3°C7 mph, SE100%10000m1009hPa86%
24-Apr-2024 03:00Light Rain2°C7 mph, SE100%1280m1008hPa96%